KLUM

Menomonie Municipal-Score Field Airport

Menomonie, Wisconsin, USA
METAR KLUM 181955Z AUTO 01007KT 10SM SCT049 OVC055 M12/M21 A3023 RMK AO2 T11231211
Observed Flight Rules
Jan-18 @ 19:55 UTC (12 minutes ago) Visual Flight Rules
Wind Visibility Clouds
10° at 7 knots 10 miles
  • Scattered at 4,900' AGL
  • Overcast at 5,500' AGL
Temperatures Readings
Current -12°C / 10°F
Dewpoint -21°C / -6°F
Humidity 47%
Altimeter 30.23" Hg
Pressure 1023.72 hPa
Elevation 273
METAR KLUM 181955Z AUTO 01007KT 10SM SCT049 OVC055 M12/M21 A3023 RMK AO2 T11231211
Observed Flight Rules
Jan-18 @ 19:55 UTC
(12 minutes ago)
VFR
Wind Visibility
10° at 7 knots 10 miles
Clouds
  • Scattered at 4,900' AGL
  • Overcast at 5,500' AGL
Temperature Dewpoint
-12°C / 10°F -21°C / -6°F
Humidity Altimeter Pressure
47% 30.23" Hg 1023.72 hPa